createdAt,value
2023-01-09T00:02:25.724Z,3
2023-01-09T00:07:35.893Z,4
2023-01-09T00:12:35.882Z,6
2023-01-09T00:17:35.904Z,5
2023-01-09T00:23:35.929Z,6
2023-01-09T00:28:56.446Z,5
2023-01-09T00:34:46.235Z,5
2023-01-09T00:39:47.534Z,6
2023-01-09T00:45:25.615Z,4
2023-01-09T00:50:25.621Z,5
2023-01-09T00:55:25.644Z,5
2023-01-09T01:00:35.920Z,4
2023-01-09T01:05:46.172Z,5
2023-01-09T01:11:25.616Z,4
2023-01-09T01:16:37.634Z,6
2023-01-09T01:21:46.236Z,5
2023-01-09T01:27:46.259Z,6
2023-01-09T01:33:25.609Z,4
2023-01-09T01:38:25.625Z,5
2023-01-09T01:43:46.192Z,8
2023-01-09T01:49:25.618Z,4
2023-01-09T01:54:56.467Z,7
2023-01-09T01:59:56.515Z,6
2023-01-09T02:04:56.471Z,5
2023-01-09T02:10:35.891Z,5
2023-01-09T02:15:35.932Z,5
2023-01-09T02:20:46.248Z,3
2023-01-09T02:26:35.924Z,3
2023-01-09T02:31:46.381Z,4
2023-01-09T02:37:25.631Z,5
2023-01-09T02:42:35.948Z,6
2023-01-09T02:47:46.260Z,4
2023-01-09T02:53:46.178Z,4
2023-01-09T02:59:56.501Z,5
2023-01-09T03:05:35.954Z,4
2023-01-09T03:11:56.499Z,5
2023-01-09T03:18:35.903Z,3
2023-01-09T03:23:46.197Z,4
2023-01-09T03:28:46.190Z,5
2023-01-09T03:34:25.636Z,6
2023-01-09T03:39:46.196Z,5
2023-01-09T03:44:56.479Z,4
2023-01-09T03:49:56.459Z,6
2023-01-09T03:56:25.692Z,4
2023-01-09T04:01:46.323Z,5
2023-01-09T04:06:56.495Z,5
2023-01-09T04:11:56.504Z,4
2023-01-09T04:17:35.913Z,3
2023-01-09T04:22:56.525Z,5
2023-01-09T04:28:25.653Z,4
2023-01-09T04:33:56.463Z,5
2023-01-09T04:39:46.161Z,3
2023-01-09T04:44:56.527Z,3
2023-01-09T04:50:25.658Z,4
2023-01-09T04:55:35.909Z,5
2023-01-09T05:00:46.272Z,4
2023-01-09T05:06:46.207Z,5
2023-01-09T05:12:25.607Z,3
2023-01-09T05:17:35.933Z,5
2023-01-09T05:22:56.471Z,4
2023-01-09T05:28:35.890Z,3
2023-01-09T05:34:25.656Z,4
2023-01-09T05:39:56.471Z,5
2023-01-09T05:45:25.671Z,5
2023-01-09T05:50:25.653Z,6
2023-01-09T05:55:35.897Z,6
2023-01-09T06:00:50.594Z,3
2023-01-09T06:06:37.609Z,8
2023-01-09T06:12:06.620Z,3
2023-01-09T06:17:26.415Z,5
2023-01-09T06:22:35.940Z,5
2023-01-09T06:27:46.198Z,5
2023-01-09T06:32:59.194Z,4
2023-01-09T06:38:25.674Z,4
2023-01-09T06:43:39.301Z,5
2023-01-09T06:49:25.608Z,4
2023-01-09T06:54:35.926Z,6
2023-01-09T07:00:35.923Z,8
2023-01-09T07:05:46.194Z,5
2023-01-09T07:10:46.217Z,4
2023-01-09T07:16:25.672Z,3
2023-01-09T07:21:25.636Z,3
2023-01-09T07:26:46.289Z,4
2023-01-09T07:31:46.262Z,4
2023-01-09T07:37:25.634Z,3
2023-01-09T07:42:46.285Z,3
2023-01-09T07:47:50.573Z,5
2023-01-09T07:52:56.495Z,5
2023-01-09T07:58:25.707Z,4
2023-01-09T08:03:27.448Z,4
2023-01-09T08:09:25.624Z,4
2023-01-09T08:14:56.477Z,3
2023-01-09T08:20:25.632Z,4
2023-01-09T08:25:25.641Z,5
2023-01-09T08:30:35.960Z,3
2023-01-09T08:35:46.348Z,5
2023-01-09T08:41:25.611Z,5
2023-01-09T08:46:25.711Z,6
2023-01-09T08:51:56.483Z,4
2023-01-09T08:57:25.611Z,4
2023-01-09T09:02:25.725Z,8
2023-01-09T09:07:56.462Z,6
2023-01-09T09:13:25.614Z,5
2023-01-09T09:18:35.938Z,6
2023-01-09T09:23:46.189Z,5
2023-01-09T09:28:46.219Z,8
2023-01-09T09:34:25.657Z,5
2023-01-09T09:39:46.181Z,6
2023-01-09T09:45:08.458Z,5
2023-01-09T09:50:35.997Z,9
2023-01-09T09:56:35.912Z,7
2023-01-09T10:02:17.112Z,6
2023-01-09T10:07:25.713Z,6
2023-01-09T10:12:35.916Z,5
2023-01-09T10:17:46.159Z,6
2023-01-09T10:22:56.558Z,7
2023-01-09T10:28:25.642Z,6
2023-01-09T10:33:25.670Z,5
2023-01-09T10:38:35.916Z,5
2023-01-09T10:43:35.930Z,9
2023-01-09T10:49:25.632Z,4
2023-01-09T10:54:46.208Z,8
2023-01-09T11:00:25.621Z,7
2023-01-09T11:05:46.164Z,6
2023-01-09T11:10:56.460Z,7
2023-01-09T11:16:56.469Z,6
2023-01-09T11:22:46.199Z,7
2023-01-09T11:27:56.481Z,3
2023-01-09T11:32:56.491Z,5
2023-01-09T11:38:46.200Z,4
2023-01-09T11:44:25.652Z,5
2023-01-09T11:49:46.159Z,4
2023-01-09T11:54:46.166Z,5
2023-01-09T12:00:08.492Z,6
2023-01-09T12:05:25.642Z,5
2023-01-09T12:10:25.695Z,7
2023-01-09T12:15:56.792Z,7
2023-01-09T12:21:25.634Z,4
2023-01-09T12:26:35.915Z,4
2023-01-09T12:31:36.962Z,5
2023-01-09T12:36:56.532Z,5
2023-01-09T12:42:25.636Z,3
2023-01-09T12:48:25.654Z,2
2023-01-09T12:53:25.635Z,3
2023-01-09T12:58:35.946Z,2
2023-01-09T13:03:46.231Z,6
2023-01-09T13:08:59.846Z,5
2023-01-09T13:14:25.634Z,4
2023-01-09T13:19:25.670Z,5
2023-01-09T13:24:35.887Z,6
2023-01-09T13:29:35.927Z,5
2023-01-09T13:34:35.957Z,6
2023-01-09T13:40:26.634Z,5
2023-01-09T13:45:36.036Z,7
2023-01-09T13:50:36.007Z,6
2023-01-09T13:55:58.745Z,7
2023-01-09T14:01:25.710Z,3
2023-01-09T14:06:25.656Z,3
2023-01-09T14:12:25.601Z,5
2023-01-09T14:17:25.636Z,8
2023-01-09T14:22:45.515Z,6
2023-01-09T14:27:46.187Z,4
2023-01-09T14:33:25.606Z,5
2023-01-09T14:38:35.937Z,5
2023-01-09T14:43:35.907Z,7
2023-01-09T14:49:25.620Z,6
2023-01-09T14:54:25.662Z,10
2023-01-09T15:00:25.612Z,6
2023-01-09T15:05:35.901Z,6
2023-01-09T15:10:40.224Z,7
2023-01-09T15:16:25.683Z,9
2023-01-09T15:21:35.904Z,7
2023-01-09T15:26:56.495Z,8
2023-01-09T15:32:25.608Z,10
2023-01-09T15:37:38.678Z,10
2023-01-09T15:42:46.223Z,7
2023-01-09T15:48:25.655Z,9
2023-01-09T15:53:29.017Z,12
2023-01-09T15:58:56.489Z,7
2023-01-09T16:04:25.905Z,6
2023-01-09T16:09:25.628Z,9
2023-01-09T16:14:35.944Z,7
2023-01-09T16:19:56.530Z,8
2023-01-09T16:25:46.189Z,7
2023-01-09T16:31:25.696Z,2
2023-01-09T16:36:25.641Z,7
2023-01-09T16:41:25.616Z,5
2023-01-09T16:47:25.670Z,3
2023-01-09T16:52:25.645Z,3
2023-01-09T16:57:35.917Z,4
2023-01-09T17:02:46.323Z,3
2023-01-09T17:07:46.255Z,3
2023-01-09T17:12:56.520Z,5
2023-01-09T17:18:25.664Z,3
2023-01-09T17:23:46.177Z,5
2023-01-09T17:28:56.493Z,4
2023-01-09T17:34:25.979Z,6
2023-01-09T17:39:27.981Z,10
2023-01-09T17:55:33.512Z,7
2023-01-09T18:01:50.271Z,6
2023-01-09T18:07:09.184Z,10
2023-01-09T18:13:03.232Z,15
2023-01-09T18:18:38.754Z,10
2023-01-09T18:24:12.098Z,11
2023-01-09T18:29:18.761Z,11
2023-01-09T18:34:25.576Z,11
2023-01-09T18:39:32.919Z,10
2023-01-09T18:45:25.632Z,6
2023-01-09T18:50:25.615Z,8
2023-01-09T18:55:33.013Z,11
2023-01-09T19:01:25.789Z,8
2023-01-09T19:06:32.403Z,12
2023-01-09T19:11:32.833Z,12
2023-01-09T19:17:25.656Z,14
2023-01-09T19:22:32.562Z,18
2023-01-09T19:27:33.075Z,10
2023-01-09T19:33:25.639Z,10
2023-01-09T19:38:25.617Z,11
2023-01-09T19:44:25.567Z,8
2023-01-09T19:49:25.597Z,11
2023-01-09T19:54:25.635Z,14
2023-01-09T19:59:25.641Z,8
2023-01-09T20:04:32.552Z,17
2023-01-09T20:09:32.904Z,11
2023-01-09T20:15:25.613Z,15
2023-01-09T20:20:32.480Z,12
2023-01-09T20:26:25.582Z,12
2023-01-09T20:31:25.607Z,14
2023-01-09T20:36:25.642Z,8
2023-01-09T20:41:33.156Z,10
2023-01-09T20:47:25.615Z,11
2023-01-09T20:52:32.442Z,10
2023-01-09T20:58:27.432Z,8
2023-01-09T21:03:25.631Z,6
2023-01-09T21:08:42.034Z,8
2023-01-09T21:13:42.015Z,9
2023-01-09T21:19:42.036Z,10
2023-01-09T21:24:48.943Z,5
2023-01-09T21:29:49.150Z,7
2023-01-09T21:35:41.981Z,8
2023-01-09T21:40:42.066Z,10
2023-01-09T21:45:49.037Z,7
2023-01-09T21:50:49.254Z,8
2023-01-09T21:56:42.164Z,10
2023-01-09T22:01:48.784Z,6
2023-01-09T22:06:48.798Z,9
2023-01-09T22:11:49.720Z,7
2023-01-09T22:17:42.007Z,9
2023-01-09T22:22:48.302Z,10
2023-01-09T22:27:48.791Z,7
2023-01-09T22:32:48.761Z,8
2023-01-09T22:37:48.797Z,8
2023-01-09T22:43:42.065Z,7
2023-01-09T22:48:49.224Z,7
2023-01-09T22:54:42.026Z,9
2023-01-09T22:59:49.484Z,8
2023-01-09T23:04:49.520Z,5
2023-01-09T23:09:49.577Z,8
2023-01-09T23:15:41.995Z,9
2023-01-09T23:20:42.018Z,9
2023-01-09T23:25:42.021Z,9
2023-01-09T23:30:48.885Z,9
2023-01-09T23:35:49.664Z,5
2023-01-09T23:41:41.998Z,7
2023-01-09T23:46:48.840Z,7
2023-01-09T23:51:48.817Z,9
2023-01-09T23:56:49.052Z,9
